Terminal Aerodrome Forecast
Issued by NWS

Home | Current Version | Previous Version | Text Only | Print | Product List | Glossary On
Versions: 1 2 3 4 5 6 7 8 9 10 11 12 13 14 15 16 17 18 19 20 21
000
FTUS41 KBGM 301100
TAFRME
TAF
KRME 301127Z 3012/3112 VRB03KT P6SM SCT080
     FM301500 16003KT P6SM OVC080
     FM301800 22006KT P6SM -SHRA OVC080
      TEMPO 3020/3024 5SM -SHRA OVC060
     FM310200 11003KT P6SM BKN120=

USA.gov is the U.S. government's official web portal to all federal, state and local government web resources and services.